Time;durP1;ratioP1;P1;durP2;ratioP2;P2;SDS_P1;SDS_P2;PMS_P1;PMS_P2;Temp;Humidity;BMP_temperature;BMP_pressure;BME280_temperature;BME280_humidity;BME280_pressure;Samples;Min_cycle;Max_cycle;Signal;HPM_P1;HPM_P2
2022/12/27 00:00:58;;;;;;;;;;;;;;;2.49;100.00;101728.38;5054184;28;20187;-75
2022/12/27 00:03:23;;;;;;;;;;;;;;;2.52;100.00;101731.03;5067700;28;19959;-75
2022/12/27 00:05:49;;;;;;;;;;;;;;;2.53;100.00;101724.03;5070573;28;20413;-75
2022/12/27 00:08:14;;;;;;;;;;;;;;;2.52;100.00;101720.56;5066971;28;19929;-76
2022/12/27 00:10:39;;;;;;;;;;;;;;;2.54;100.00;101725.78;5049967;28;20009;-75
2022/12/27 00:13:05;;;;;;;;;;;;;;;2.57;100.00;101729.25;5066463;28;19933;-75
2022/12/27 00:15:31;;;;;;;;;;;;;;;2.58;100.00;101715.31;5067015;28;19950;-76
2022/12/27 00:17:57;;;;;;;;;;;;;;;2.60;100.00;101724.94;5053822;28;19987;-75
2022/12/27 00:20:22;;;;;;;;;;;;;;;2.60;100.00;101725.78;5048938;28;20375;-75
2022/12/27 00:22:47;;;;;;;;;;;;;;;2.63;100.00;101730.16;5066873;28;20047;-75
2022/12/27 00:25:13;;;;;;;;;;;;;;;2.63;100.00;101731.03;5066100;28;20157;-74
2022/12/27 00:27:38;;;;;;;;;;;;;;;2.66;100.00;101731.03;5064760;28;20127;-74
2022/12/27 00:30:04;;;;;;;;;;;;;;;2.75;100.00;101734.53;5052259;28;19954;-74
2022/12/27 00:32:29;;;;;;;;;;;;;;;2.79;100.00;101739.75;5065098;28;21488;-74
2022/12/27 00:34:55;;;;;;;;;;;;;;;2.81;100.00;101732.81;5065036;28;19928;-75
2022/12/27 00:37:20;;;;;;;;;;;;;;;2.90;100.00;101737.19;5053009;28;19932;-75
2022/12/27 00:39:46;;;;;;;;;;;;;;;2.97;100.00;101738.94;5064343;28;20147;-74
2022/12/27 00:42:11;;;;;;;;;;;;;;;2.99;100.00;101734.56;5065119;28;19924;-74
2022/12/27 00:44:36;;;;;;;;;;;;;;;3.03;100.00;101738.06;5066503;28;21798;-74
2022/12/27 00:47:02;;;;;;;;;;;;;;;3.02;100.00;101738.94;5066524;28;19967;-74
2022/12/27 00:49:27;;;;;;;;;;;;;;;3.02;100.00;101741.53;5065102;28;19928;-74
2022/12/27 00:51:53;;;;;;;;;;;;;;;3.03;100.00;101743.28;5065338;28;20054;-74
2022/12/27 00:54:18;;;;;;;;;;;;;;;3.06;100.00;101751.13;5066273;28;19932;-74
2022/12/27 00:56:44;;;;;;;;;;;;;;;3.15;100.00;101747.63;5065285;28;19949;-74
2022/12/27 00:59:10;;;;;;;;;;;;;;;3.20;100.00;101747.63;5066614;28;21562;-74
2022/12/27 01:01:35;;;;;;;;;;;;;;;3.27;100.00;101759.84;5065045;28;20166;-74
2022/12/27 01:04:01;;;;;;;;;;;;;;;3.33;100.00;101759.84;5053394;28;19928;-74
2022/12/27 01:06:27;;;;;;;;;;;;;;;3.38;100.00;101752.00;5064407;28;19928;-75
2022/12/27 01:08:53;;;;;;;;;;;;;;;3.35;100.00;101752.00;5064484;28;20304;-75
2022/12/27 01:11:19;;;;;;;;;;;;;;;3.31;100.00;101755.50;5063661;28;19950;-75
2022/12/27 01:13:44;;;;;;;;;;;;;;;3.30;100.00;101764.22;5065937;28;19935;-75
2022/12/27 01:16:10;;;;;;;;;;;;;;;3.25;100.00;101767.72;5065789;28;20335;-75
2022/12/27 01:18:35;;;;;;;;;;;;;;;3.25;100.00;101767.72;5063618;28;20403;-75
2022/12/27 01:21:07;;;;;;;;;;;;;;;3.31;100.00;101772.06;5065759;28;20462;-74
2022/12/27 01:23:33;;;;;;;;;;;;;;;3.36;100.00;101772.94;5048342;28;19971;-75
2022/12/27 01:26:02;;;;;;;;;;;;;;;3.43;100.00;101772.94;5064782;28;20085;-75
2022/12/27 01:28:27;;;;;;;;;;;;;;;3.49;100.00;101780.81;5052017;28;19928;-75
2022/12/27 01:30:53;;;;;;;;;;;;;;;3.51;100.00;101785.16;5063663;28;20307;-74
2022/12/27 01:33:18;;;;;;;;;;;;;;;3.53;100.00;101793.00;5050223;28;19932;-74
2022/12/27 01:35:44;;;;;;;;;;;;;;;3.52;100.00;101801.72;5064085;28;19975;-73
2022/12/27 01:38:09;;;;;;;;;;;;;;;3.48;100.00;101803.47;5063922;28;19932;-73
2022/12/27 01:40:35;;;;;;;;;;;;;;;3.45;100.00;101819.22;5065123;28;19971;-74
2022/12/27 01:43:00;;;;;;;;;;;;;;;3.47;100.00;101803.47;5072446;28;20432;-74
2022/12/27 01:45:31;;;;;;;;;;;;;;;3.47;100.00;101813.94;5063950;28;19938;-74
2022/12/27 01:48:03;;;;;;;;;;;;;;;3.48;100.00;101815.72;5047796;28;19944;-74
2022/12/27 01:50:31;;;;;;;;;;;;;;;3.49;100.00;101822.69;5063261;28;19955;-74
2022/12/27 01:52:59;;;;;;;;;;;;;;;3.48;100.00;101824.44;5046998;28;19923;-74
2022/12/27 01:55:44;;;;;;;;;;;;;;;3.44;100.00;101829.69;5070055;28;20298;-74
2022/12/27 01:58:14;;;;;;;;;;;;;;;3.42;100.00;101831.44;5071641;28;20454;-74
2022/12/27 02:00:39;;;;;;;;;;;;;;;3.42;100.00;101828.81;5055544;28;19947;-74
2022/12/27 02:03:05;;;;;;;;;;;;;;;3.41;100.00;101830.53;5066499;28;20050;-75
2022/12/27 02:05:30;;;;;;;;;;;;;;;3.42;100.00;101826.19;5052085;28;21401;-75
2022/12/27 02:08:14;;;;;;;;;;;;;;;3.39;100.00;101827.91;5084714;28;20627;-75
2022/12/27 02:10:40;;;;;;;;;;;;;;;3.40;100.00;101820.94;5084313;28;19931;-74
2022/12/27 02:13:05;;;;;;;;;;;;;;;3.43;100.00;101831.41;5066880;28;19928;-74
2022/12/27 02:15:31;;;;;;;;;;;;;;;3.47;100.00;101829.66;5084975;28;19939;-74
2022/12/27 02:17:56;;;;;;;;;;;;;;;3.49;100.00;101839.25;5041981;28;22066;-74
2022/12/27 02:20:22;;;;;;;;;;;;;;;3.51;100.00;101841.91;5067001;28;19934;-75
2022/12/27 02:25:41;;;;;;;;;;;;;;;3.51;100.00;101841.91;5084829;28;19933;-75
2022/12/27 02:28:24;;;;;;;;;;;;;;;3.49;100.00;101854.13;5085021;28;20414;-74
2022/12/27 02:30:51;;;;;;;;;;;;;;;3.48;100.00;101857.63;5085330;28;19934;-75
2022/12/27 02:33:20;;;;;;;;;;;;;;;3.45;100.00;101852.34;5049883;28;20344;-75
2022/12/27 02:35:49;;;;;;;;;;;;;;;3.40;100.00;101850.59;5066618;28;19978;-75
2022/12/27 02:38:15;;;;;;;;;;;;;;;3.39;100.00;101851.47;5066682;28;19924;-75
2022/12/27 02:55:24;;;;;;;;;;;;;;;3.21;100.00;101868.03;5069270;28;19934;-75
2022/12/27 02:58:28;;;;;;;;;;;;;;;3.17;100.00;101873.28;5074622;28;19977;-75
2022/12/27 03:03:52;;;;;;;;;;;;;;;3.12;100.00;101862.81;5009680;28;20459;-76
2022/12/27 03:06:38;;;;;;;;;;;;;;;3.09;100.00;101860.16;5027351;28;19923;-75
2022/12/27 03:17:31;;;;;;;;;;;;;;;3.06;100.00;101871.50;5068496;28;19974;-75
2022/12/27 03:25:36;;;;;;;;;;;;;;;3.11;100.00;101885.47;5068414;28;19931;-75
2022/12/27 03:33:30;;;;;;;;;;;;;;;3.11;100.00;101890.69;5068266;28;20024;-75
2022/12/27 03:38:49;;;;;;;;;;;;;;;3.12;100.00;101913.38;5067960;28;20547;-76
2022/12/27 03:44:22;;;;;;;;;;;;;;;3.16;100.00;101908.16;5068660;28;20407;-76
2022/12/27 03:46:46;;;;;;;;;;;;;;;3.16;100.00;101916.03;5068194;28;19932;-77
2022/12/27 03:49:17;;;;;;;;;;;;;;;3.17;100.00;101909.91;5065292;28;19924;-76
2022/12/27 03:52:01;;;;;;;;;;;;;;;3.14;100.00;101902.06;5049066;28;19964;-76
2022/12/27 03:54:28;;;;;;;;;;;;;;;3.11;100.00;101903.78;5071548;28;20396;-76
2022/12/27 03:56:54;;;;;;;;;;;;;;;3.11;100.00;101908.16;5065496;28;20378;-76
2022/12/27 03:59:20;;;;;;;;;;;;;;;3.14;100.00;101912.53;5065856;28;19928;-76
2022/12/27 04:01:45;;;;;;;;;;;;;;;3.12;100.00;101918.59;5068789;28;19927;-76
2022/12/27 04:04:10;;;;;;;;;;;;;;;3.12;100.00;101918.59;5082892;28;19924;-75
2022/12/27 04:06:36;;;;;;;;;;;;;;;3.11;100.00;101919.47;5082828;28;19924;-75
2022/12/27 04:36:21;;;;;;;;;;;;;;;2.92;100.00;101946.44;5087359;28;20338;-75
2022/12/27 04:38:46;;;;;;;;;;;;;;;2.90;100.00;101945.56;5069051;28;19942;-75
2022/12/27 04:55:12;;;;;;;;;;;;;;;2.92;100.00;101975.22;5071392;28;19935;-75
2022/12/27 04:57:38;;;;;;;;;;;;;;;2.92;100.00;101956.91;5067813;28;19927;-75
2022/12/27 05:03:02;;;;;;;;;;;;;;;2.93;100.00;101967.41;5022856;28;20358;-74
2022/12/27 05:05:28;;;;;;;;;;;;;;;2.93;100.00;101956.03;5086963;28;19934;-76
2022/12/27 05:16:06;;;;;;;;;;;;;;;2.87;100.00;101974.34;5086024;28;20282;-75
2022/12/27 05:18:31;;;;;;;;;;;;;;;2.82;100.00;101979.53;5085990;28;19919;-75
2022/12/27 05:21:03;;;;;;;;;;;;;;;2.76;100.00;101980.38;5085463;28;20290;-76
2022/12/27 05:26:17;;;;;;;;;;;;;;;2.73;100.00;101993.47;5066044;28;20538;-75
2022/12/27 05:28:43;;;;;;;;;;;;;;;2.68;100.00;102000.41;5085982;28;20279;-75
2022/12/27 05:31:08;;;;;;;;;;;;;;;2.64;100.00;101996.91;5086570;28;19989;-76
2022/12/27 05:33:34;;;;;;;;;;;;;;;2.62;100.00;102000.34;5059381;28;20403;-76
2022/12/27 05:35:59;;;;;;;;;;;;;;;2.57;100.00;102003.81;5086430;28;19927;-76
2022/12/27 05:38:25;;;;;;;;;;;;;;;2.54;100.00;102009.03;5084949;28;19928;-75
2022/12/27 05:40:50;;;;;;;;;;;;;;;2.51;100.00;102014.22;5067863;28;19928;-75
2022/12/27 05:43:16;;;;;;;;;;;;;;;2.46;100.00;102015.06;5085784;28;19935;-75
2022/12/27 05:45:41;;;;;;;;;;;;;;;2.42;100.00;102015.06;5050981;28;19931;-75
2022/12/27 05:48:06;;;;;;;;;;;;;;;2.42;100.00;102017.66;5067512;28;19928;-75
2022/12/27 05:50:32;;;;;;;;;;;;;;;2.42;100.00;102008.94;5085470;28;20051;-75
2022/12/27 05:52:57;;;;;;;;;;;;;;;2.40;100.00;102006.31;5085914;28;19930;-75
2022/12/27 05:55:25;;;;;;;;;;;;;;;2.38;100.00;102007.16;5072441;28;19932;-76
2022/12/27 05:57:50;;;;;;;;;;;;;;;2.37;100.00;102015.88;5085292;28;19930;-75
2022/12/27 06:00:16;;;;;;;;;;;;;;;2.35;100.00;102017.59;5067523;28;19927;-75
2022/12/27 06:02:41;;;;;;;;;;;;;;;2.30;100.00;102013.19;5067046;28;19927;-75
2022/12/27 06:05:07;;;;;;;;;;;;;;;2.27;100.00;102020.13;5050693;28;20001;-75
2022/12/27 06:07:33;;;;;;;;;;;;;;;2.25;100.00;102016.66;5065835;28;20026;-75
2022/12/27 06:09:59;;;;;;;;;;;;;;;2.20;100.00;102015.72;5055432;28;20366;-75
2022/12/27 06:12:24;;;;;;;;;;;;;;;2.16;100.00;102017.44;5085161;28;20542;-75
2022/12/27 06:14:49;;;;;;;;;;;;;;;2.14;100.00;102021.78;5067047;28;19964;-75
2022/12/27 06:17:15;;;;;;;;;;;;;;;2.15;100.00;102052.28;5085198;28;19968;-75
2022/12/27 06:19:40;;;;;;;;;;;;;;;2.16;100.00;102040.97;5084917;28;19932;-76
2022/12/27 06:22:05;;;;;;;;;;;;;;;2.18;100.00;102036.63;5084212;28;19967;-77
2022/12/27 06:24:31;;;;;;;;;;;;;;;2.20;100.00;102036.63;5066614;28;19959;-76
2022/12/27 06:26:56;;;;;;;;;;;;;;;2.23;100.00;102036.69;5055012;28;20030;-76
2022/12/27 06:29:22;;;;;;;;;;;;;;;2.25;100.00;102038.44;5070789;28;20028;-76
2022/12/27 06:31:47;;;;;;;;;;;;;;;2.26;100.00;102032.34;5066650;28;19928;-76
2022/12/27 06:34:13;;;;;;;;;;;;;;;2.27;100.00;102039.31;5064276;28;19923;-75
2022/12/27 06:36:38;;;;;;;;;;;;;;;2.25;100.00;102041.06;5084059;28;19924;-76
2022/12/27 06:39:04;;;;;;;;;;;;;;;2.24;100.00;102041.91;5066372;28;19980;-75
2022/12/27 06:41:29;;;;;;;;;;;;;;;2.21;100.00;102044.50;5071233;28;19924;-76
2022/12/27 06:43:55;;;;;;;;;;;;;;;2.20;100.00;102045.38;5066711;28;19924;-75
2022/12/27 06:46:23;;;;;;;;;;;;;;;2.18;100.00;102047.06;5066639;28;19928;-76
2022/12/27 06:48:48;;;;;;;;;;;;;;;2.17;100.00;102058.38;5084188;28;19932;-76
2022/12/27 06:51:14;;;;;;;;;;;;;;;2.16;100.00;102060.13;5048974;28;20335;-76
2022/12/27 06:53:40;;;;;;;;;;;;;;;2.14;100.00;102056.63;5052467;28;19962;-76
2022/12/27 06:56:07;;;;;;;;;;;;;;;2.14;100.00;102066.22;5051954;28;19934;-75
2022/12/27 06:58:32;;;;;;;;;;;;;;;2.11;100.00;102067.06;5083534;28;19939;-76
2022/12/27 07:01:05;;;;;;;;;;;;;;;2.08;100.00;102064.44;5054251;28;19928;-75
2022/12/27 07:03:30;;;;;;;;;;;;;;;2.05;100.00;102067.00;5084232;28;20397;-76
2022/12/27 07:05:56;;;;;;;;;;;;;;;2.02;100.00;102072.19;5068830;28;19931;-75
2022/12/27 07:08:21;;;;;;;;;;;;;;;2.00;100.00;102082.63;5084506;28;20019;-76
2022/12/27 07:10:46;;;;;;;;;;;;;;;1.99;100.00;102078.28;5085146;28;19928;-76
2022/12/27 07:13:12;;;;;;;;;;;;;;;1.98;100.00;102079.13;5070284;28;19928;-76
2022/12/27 07:15:37;;;;;;;;;;;;;;;1.97;100.00;102079.09;5083720;28;19969;-75
2022/12/27 07:18:03;;;;;;;;;;;;;;;1.95;100.00;102088.66;5083727;28;19934;-75
2022/12/27 07:20:28;;;;;;;;;;;;;;;1.94;100.00;102094.72;5083866;28;19928;-75
2022/12/27 07:22:53;;;;;;;;;;;;;;;1.89;100.00;102100.81;5083917;28;19928;-75
2022/12/27 07:25:19;;;;;;;;;;;;;;;1.87;100.00;102110.34;5083761;28;20398;-75
2022/12/27 07:27:44;;;;;;;;;;;;;;;1.86;100.00;102116.41;5084928;28;19923;-75
2022/12/27 07:30:09;;;;;;;;;;;;;;;1.84;100.00;102106.81;5084001;28;19928;-75
2022/12/27 07:32:35;;;;;;;;;;;;;;;1.82;100.00;102109.44;5084186;28;19931;-75
2022/12/27 07:35:00;;;;;;;;;;;;;;;1.81;100.00;102102.47;5084160;28;19967;-75
2022/12/27 07:37:25;;;;;;;;;;;;;;;1.78;100.00;102109.38;5083339;28;20278;-75
2022/12/27 07:39:51;;;;;;;;;;;;;;;1.75;100.00;102116.31;5066126;28;20401;-75
2022/12/27 07:42:16;;;;;;;;;;;;;;;1.74;100.00;102125.00;5066328;28;19971;-75
2022/12/27 07:44:42;;;;;;;;;;;;;;;1.73;100.00;102130.19;5083654;28;20390;-75
2022/12/27 07:47:07;;;;;;;;;;;;;;;1.68;100.00;102130.16;5064774;28;20023;-75
2022/12/27 07:49:32;;;;;;;;;;;;;;;1.64;100.00;102128.38;5068103;28;19927;-75
2022/12/27 07:51:58;;;;;;;;;;;;;;;1.61;100.00;102130.94;5087966;28;19933;-75
2022/12/27 07:54:23;;;;;;;;;;;;;;;1.60;100.00;102137.00;5068573;28;19975;-75
2022/12/27 07:56:49;;;;;;;;;;;;;;;1.60;100.00;102139.63;5087659;28;19985;-75
2022/12/27 07:59:14;;;;;;;;;;;;;;;1.60;100.00;102148.34;5087610;28;19932;-76
2022/12/27 08:04:24;;;;;;;;;;;;;;;1.58;100.00;102164.84;5073012;28;19930;-76
2022/12/27 08:06:49;;;;;;;;;;;;;;;1.57;100.00;102163.09;5088354;28;20298;-75
2022/12/27 08:09:15;;;;;;;;;;;;;;;1.55;100.00;102160.44;5069017;28;19924;-76
2022/12/27 08:11:41;;;;;;;;;;;;;;;1.54;100.00;102168.25;5068575;28;20363;-75
2022/12/27 08:14:06;;;;;;;;;;;;;;;1.51;100.00;102171.69;5087003;28;19931;-75
2022/12/27 08:16:32;;;;;;;;;;;;;;;1.48;100.00;102175.13;5068060;28;19927;-75
2022/12/27 08:18:57;;;;;;;;;;;;;;;1.48;100.00;102180.34;5068797;28;19927;-76
2022/12/27 08:21:22;;;;;;;;;;;;;;;1.46;100.00;102174.25;5071377;28;20010;-75
2022/12/27 08:23:48;;;;;;;;;;;;;;;1.47;100.00;102170.78;5068784;28;19931;-75
2022/12/27 08:26:14;;;;;;;;;;;;;;;1.46;100.00;102175.97;5069454;28;19930;-75
2022/12/27 08:28:39;;;;;;;;;;;;;;;1.46;100.00;102182.09;5052184;28;20011;-75
2022/12/27 08:31:06;;;;;;;;;;;;;;;1.45;100.00;102180.34;5068221;28;20301;-76
2022/12/27 08:33:32;;;;;;;;;;;;;;;1.46;100.00;102186.41;5068001;28;20481;-75
2022/12/27 08:35:57;;;;;;;;;;;;;;;1.45;100.00;102177.72;5051403;28;20038;-75
2022/12/27 08:38:23;;;;;;;;;;;;;;;1.44;100.00;102186.41;5068912;28;20020;-76
2022/12/27 08:40:48;;;;;;;;;;;;;;;1.46;100.00;102183.81;5068699;28;19973;-75
2022/12/27 08:43:14;;;;;;;;;;;;;;;1.47;100.00;102189.06;5068109;28;20011;-76
2022/12/27 08:45:39;;;;;;;;;;;;;;;1.47;100.00;102181.22;5086360;28;19973;-76
2022/12/27 08:48:05;;;;;;;;;;;;;;;1.47;100.00;102183.81;5084544;28;19936;-76
2022/12/27 08:50:30;;;;;;;;;;;;;;;1.46;100.00;102187.31;5062746;28;19977;-76
2022/12/27 08:52:56;;;;;;;;;;;;;;;1.47;100.00;102183.81;5081214;28;19935;-77
2022/12/27 08:55:22;;;;;;;;;;;;;;;1.51;100.00;102194.34;5049832;28;20067;-75
2022/12/27 08:57:47;;;;;;;;;;;;;;;1.52;100.00;102190.88;5079732;28;19956;-76
2022/12/27 09:00:13;;;;;;;;;;;;;;;1.53;100.00;102192.63;5074392;28;20387;-76
2022/12/27 09:02:38;;;;;;;;;;;;;;;1.56;100.00;102197.84;5060622;28;20009;-76
2022/12/27 09:05:04;;;;;;;;;;;;;;;1.57;100.00;102191.81;5075452;28;19928;-76
2022/12/27 09:07:29;;;;;;;;;;;;;;;1.60;100.00;102189.22;5077348;28;19928;-76
2022/12/27 09:09:55;;;;;;;;;;;;;;;1.62;100.00;102190.13;5050697;28;19927;-76
2022/12/27 09:12:20;;;;;;;;;;;;;;;1.67;100.00;102196.28;5071396;28;19967;-76
2022/12/27 09:14:46;;;;;;;;;;;;;;;1.71;100.00;102202.41;5066836;28;20032;-76
2022/12/27 09:17:11;;;;;;;;;;;;;;;1.73;100.00;102209.44;5073011;28;20602;-76
2022/12/27 09:19:37;;;;;;;;;;;;;;;1.76;100.00;102206.84;5074580;28;20298;-77
2022/12/27 09:22:02;;;;;;;;;;;;;;;1.79;100.00;102210.38;5071174;28;19993;-76
2022/12/27 09:24:27;;;;;;;;;;;;;;;1.80;100.00;102193.84;5056395;28;19924;-76
2022/12/27 09:26:53;;;;;;;;;;;;;;;1.82;100.00;102194.72;5073324;28;20728;-76
2022/12/27 09:29:18;;;;;;;;;;;;;;;1.87;100.00;102199.13;5073541;28;19936;-75
2022/12/27 09:31:44;;;;;;;;;;;;;;;1.93;100.00;102193.13;5063300;28;19931;-77
2022/12/27 09:34:10;;;;;;;;;;;;;;;1.97;100.00;102199.28;5058751;28;20450;-77
2022/12/27 09:36:36;;;;;;;;;;;;;;;2.00;100.00;102192.34;5052151;28;19946;-77
2022/12/27 09:39:01;;;;;;;;;;;;;;;2.05;100.00;102202.00;5067641;28;19932;-77
2022/12/27 09:41:27;;;;;;;;;;;;;;;2.09;100.00;102219.44;5046808;28;20505;-76
2022/12/27 09:43:58;;;;;;;;;;;;;;;2.12;100.00;102214.28;5054094;28;20481;-76
2022/12/27 09:46:37;;;;;;;;;;;;;;;2.22;100.00;102204.81;5051373;28;19936;-76
2022/12/27 09:49:03;;;;;;;;;;;;;;;2.31;100.00;102208.38;5052384;28;19938;-77
2022/12/27 09:51:30;;;;;;;;;;;;;;;2.43;100.00;102212.88;5067642;28;19924;-77
2022/12/27 09:54:01;;;;;;;;;;;;;;;2.56;100.00;102210.38;5072074;28;20054;-77
2022/12/27 09:56:28;;;;;;;;;;;;;;;2.63;100.00;102206.06;5075117;28;19984;-77
2022/12/27 09:58:54;;;;;;;;;;;;;;;2.69;100.00;102217.50;5054929;28;19928;-77
2022/12/27 10:01:28;;;;;;;;;;;;;;;2.72;100.00;102221.84;5047499;28;19954;-77
2022/12/27 10:03:53;;;;;;;;;;;;;;;2.76;100.00;102227.97;5039412;28;20010;-77
2022/12/27 10:06:29;;;;;;;;;;;;;;;2.82;100.00;102231.56;5055538;28;20053;-77
2022/12/27 10:09:13;;;;;;;;;;;;;;;2.87;100.00;102223.72;5061266;28;20310;-76
2022/12/27 10:11:42;;;;;;;;;;;;;;;2.94;100.00;102219.44;5048813;28;21244;-76
2022/12/27 10:14:14;;;;;;;;;;;;;;;2.99;100.00;102220.34;5042809;28;20042;-76
2022/12/27 10:16:53;;;;;;;;;;;;;;;3.04;100.00;102218.66;5042669;28;20287;-76
2022/12/27 10:19:22;;;;;;;;;;;;;;;3.09;100.00;102230.03;5044076;28;19934;-76
2022/12/27 10:21:51;;;;;;;;;;;;;;;3.15;100.00;102230.97;5061186;28;19970;-77
2022/12/27 10:24:22;;;;;;;;;;;;;;;3.18;100.00;102228.34;5041815;28;19989;-76
2022/12/27 10:26:48;;;;;;;;;;;;;;;3.20;100.00;102231.84;5046611;28;20031;-77
2022/12/27 10:29:21;;;;;;;;;;;;;;;3.24;100.00;102234.53;5064612;28;19928;-77
2022/12/27 10:31:46;;;;;;;;;;;;;;;3.29;100.00;102238.91;5038560;28;20014;-77
2022/12/27 10:34:13;;;;;;;;;;;;;;;3.31;100.00;102235.44;5034806;28;20492;-76
2022/12/27 10:36:38;;;;;;;;;;;;;;;3.32;100.00;102229.31;5043027;28;19931;-77
2022/12/27 10:39:05;;;;;;;;;;;;;;;3.33;100.00;102235.44;5043077;28;19928;-76
2022/12/27 10:41:39;;;;;;;;;;;;;;;3.32;100.00;102234.56;5060100;27;20191;-76
2022/12/27 10:44:11;;;;;;;;;;;;;;;3.30;100.00;102231.06;5060503;28;21323;-77
2022/12/27 10:46:37;;;;;;;;;;;;;;;3.30;100.00;102243.25;5057660;28;19949;-77
2022/12/27 10:49:05;;;;;;;;;;;;;;;3.29;100.00;102239.78;5039722;28;20405;-77
2022/12/27 10:51:35;;;;;;;;;;;;;;;3.29;100.00;102241.50;5061033;28;20427;-77
2022/12/27 10:54:04;;;;;;;;;;;;;;;3.30;100.00;102244.16;5044614;28;19928;-76
2022/12/27 10:56:34;;;;;;;;;;;;;;;3.34;100.00;102232.84;5044653;28;19927;-76
2022/12/27 10:59:03;;;;;;;;;;;;;;;3.36;100.00;102236.34;5023489;28;19947;-76
2022/12/27 11:01:29;;;;;;;;;;;;;;;3.40;100.00;102245.97;5058680;28;19959;-76
2022/12/27 11:04:10;;;;;;;;;;;;;;;3.41;100.00;102239.00;5038474;28;20191;-77
2022/12/27 11:06:35;;;;;;;;;;;;;;;3.41;100.00;102244.22;5041833;28;19961;-76
2022/12/27 11:09:16;;;;;;;;;;;;;;;3.44;100.00;102246.00;5061353;28;19984;-77
2022/12/27 11:11:41;;;;;;;;;;;;;;;3.45;100.00;102246.00;5042375;28;20537;-76
2022/12/27 11:14:11;;;;;;;;;;;;;;;3.48;100.00;102245.16;5030849;28;19932;-76
2022/12/27 11:16:37;;;;;;;;;;;;;;;3.52;100.00;102244.28;5042839;28;20508;-76
2022/12/27 11:19:02;;;;;;;;;;;;;;;3.53;100.00;102241.69;5059079;28;20260;-75
2022/12/27 11:21:28;;;;;;;;;;;;;;;3.56;100.00;102237.34;5056613;28;19931;-76
2022/12/27 11:23:57;;;;;;;;;;;;;;;3.57;100.00;102234.72;5036897;28;19935;-76
2022/12/27 11:26:23;;;;;;;;;;;;;;;3.59;100.00;102234.75;5044480;28;19927;-76
2022/12/27 11:28:51;;;;;;;;;;;;;;;3.62;100.00;102230.41;5035893;28;20682;-76
2022/12/27 11:31:18;;;;;;;;;;;;;;;3.67;100.00;102231.28;5060187;28;19932;-77
2022/12/27 11:33:53;;;;;;;;;;;;;;;3.73;100.00;102226.97;5025319;28;19936;-76
2022/12/27 11:36:23;;;;;;;;;;;;;;;3.77;100.00;102218.25;5042607;28;19923;-76
2022/12/27 11:38:48;;;;;;;;;;;;;;;3.77;100.00;102216.50;5046474;28;19932;-76
2022/12/27 11:41:16;;;;;;;;;;;;;;;3.76;100.00;102222.59;5040913;28;20426;-77
2022/12/27 11:43:48;;;;;;;;;;;;;;;3.75;100.00;102217.34;5040440;28;20298;-77
2022/12/27 11:46:46;;;;;;;;;;;;;;;3.75;100.00;102217.34;5058476;28;20406;-76
2022/12/27 11:49:34;;;;;;;;;;;;;;;3.76;100.00;102219.13;5008880;28;20470;-76
2022/12/27 11:52:04;;;;;;;;;;;;;;;3.75;100.00;102215.63;5047303;28;19927;-76
2022/12/27 11:54:32;;;;;;;;;;;;;;;3.76;100.00;102216.50;5060018;28;20523;-76
2022/12/27 11:57:18;;;;;;;;;;;;;;;3.78;100.00;102209.53;5040563;28;20409;-75
2022/12/27 11:59:46;;;;;;;;;;;;;;;3.80;100.00;102215.63;5040933;28;19944;-76
2022/12/27 12:02:30;;;;;;;;;;;;;;;3.80;100.00;102215.63;5059084;28;20677;-76
2022/12/27 12:05:15;;;;;;;;;;;;;;;3.79;100.00;102208.66;5061039;28;19928;-76
2022/12/27 12:07:43;;;;;;;;;;;;;;;3.79;100.00;102206.03;5055693;28;19928;-75
2022/12/27 12:10:15;;;;;;;;;;;;;;;3.80;100.00;102211.28;5060278;28;19928;-75
2022/12/27 12:12:40;;;;;;;;;;;;;;;3.82;100.00;102210.41;5053527;28;19935;-75
2022/12/27 12:15:24;;;;;;;;;;;;;;;3.79;100.00;102192.94;5061342;28;20068;-76
2022/12/27 12:18:08;;;;;;;;;;;;;;;3.82;100.00;102202.56;5041047;28;19935;-76
2022/12/27 12:20:37;;;;;;;;;;;;;;;3.81;100.00;102180.69;5068111;28;20399;-76
2022/12/27 12:23:11;;;;;;;;;;;;;;;3.84;100.00;102183.34;5070664;28;20025;-76
2022/12/27 12:25:56;;;;;;;;;;;;;;;3.87;100.00;102185.97;5049462;28;19989;-76
2022/12/27 12:28:40;;;;;;;;;;;;;;;3.92;100.00;102178.16;5046936;28;19989;-74
2022/12/27 12:31:18;;;;;;;;;;;;;;;3.97;100.00;102180.78;5064279;28;19927;-75
2022/12/27 12:34:13;;;;;;;;;;;;;;;4.00;100.00;102175.53;5065235;28;20051;-75
2022/12/27 12:36:41;;;;;;;;;;;;;;;4.04;100.00;102169.47;4977535;28;20634;-75
2022/12/27 12:39:26;;;;;;;;;;;;;;;4.08;100.00;102171.19;5070340;28;19937;-75
2022/12/27 12:42:06;;;;;;;;;;;;;;;4.11;100.00;102168.59;5077306;28;20085;-75
2022/12/27 12:44:42;;;;;;;;;;;;;;;4.15;100.00;102165.09;5077638;28;20467;-75
2022/12/27 12:47:23;;;;;;;;;;;;;;;4.18;100.00;102154.63;5074582;28;20014;-76
2022/12/27 12:49:48;;;;;;;;;;;;;;;4.18;100.00;102153.75;5077527;28;19924;-75
2022/12/27 12:52:33;;;;;;;;;;;;;;;4.19;100.00;102150.25;5078984;28;20655;-76
2022/12/27 12:54:58;;;;;;;;;;;;;;;4.17;100.00;102142.41;5078150;28;19989;-76
2022/12/27 12:57:42;;;;;;;;;;;;;;;4.17;100.00;102138.91;5074057;28;20608;-77
2022/12/27 13:00:19;;;;;;;;;;;;;;;4.15;100.00;102138.03;5066861;27;21197;-76
2022/12/27 13:03:11;;;;;;;;;;;;;;;4.13;100.00;102134.53;5072044;28;21779;-76
2022/12/27 13:05:42;;;;;;;;;;;;;;;4.12;100.00;102130.13;5073551;28;20054;-76
2022/12/27 13:08:08;;;;;;;;;;;;;;;4.12;100.00;102131.03;5077276;28;20109;-78
2022/12/27 13:10:43;;;;;;;;;;;;;;;4.13;100.00;102126.69;5071544;28;19931;-75
2022/12/27 13:13:18;;;;;;;;;;;;;;;4.13;100.00;102119.66;5073469;28;20271;-75
2022/12/27 13:15:52;;;;;;;;;;;;;;;4.15;100.00;102123.16;5066698;27;19932;-75
2022/12/27 13:18:34;;;;;;;;;;;;;;;4.17;100.00;102118.81;5073391;28;20223;-75
2022/12/27 13:21:04;;;;;;;;;;;;;;;4.19;100.00;102113.53;5054131;28;20193;-75
2022/12/27 13:23:49;;;;;;;;;;;;;;;4.20;100.00;102110.09;5048650;28;20566;-75
2022/12/27 13:26:19;;;;;;;;;;;;;;;4.19;100.00;102093.47;5071758;28;20356;-75
2022/12/27 13:29:00;;;;;;;;;;;;;;;4.22;100.00;102105.72;5054935;28;19928;-75
2022/12/27 13:31:44;;;;;;;;;;;;;;;4.24;100.00;102095.22;5074415;28;19927;-75
2022/12/27 13:34:21;;;;;;;;;;;;;;;4.23;100.00;102090.88;5073660;28;20459;-75
2022/12/27 13:36:53;;;;;;;;;;;;;;;4.21;100.00;102091.72;5074470;28;19928;-73
2022/12/27 13:39:26;;;;;;;;;;;;;;;4.19;100.00;102085.59;5072467;28;20477;-75
2022/12/27 13:41:55;;;;;;;;;;;;;;;4.19;100.00;102079.47;5050552;28;19983;-73
2022/12/27 13:44:39;;;;;;;;;;;;;;;4.18;100.00;102073.38;5059634;28;20104;-73
2022/12/27 13:47:14;;;;;;;;;;;;;;;4.18;100.00;102078.59;5080679;28;20342;-73
2022/12/27 13:50:03;;;;;;;;;;;;;;;4.18;100.00;102078.59;5078236;28;19928;-73
2022/12/27 13:52:34;;;;;;;;;;;;;;;4.16;100.00;102071.63;5024626;28;20401;-73
2022/12/27 13:55:18;;;;;;;;;;;;;;;4.16;100.00;102069.00;5076923;28;19928;-74
2022/12/27 13:58:02;;;;;;;;;;;;;;;4.14;100.00;102070.75;5078815;28;20012;-74
2022/12/27 14:00:30;;;;;;;;;;;;;;;4.11;100.00;102071.63;5065024;28;19923;-74
2022/12/27 14:02:55;;;;;;;;;;;;;;;4.10;100.00;102068.97;5043724;28;19927;-74
2022/12/27 14:05:44;;;;;;;;;;;;;;;4.07;100.00;102067.22;5076923;28;20129;-74
2022/12/27 14:08:22;;;;;;;;;;;;;;;4.03;100.00;102071.59;5069337;28;19935;-74
2022/12/27 14:10:48;;;;;;;;;;;;;;;4.00;100.00;102057.59;5078063;28;19923;-74
2022/12/27 14:13:20;;;;;;;;;;;;;;;3.98;100.00;102052.34;5062955;28;19924;-73
2022/12/27 14:15:48;;;;;;;;;;;;;;;3.96;100.00;102054.13;5058775;28;20048;-74
2022/12/27 14:18:33;;;;;;;;;;;;;;;3.94;100.00;102055.88;5077403;28;19935;-74
2022/12/27 14:21:08;;;;;;;;;;;;;;;3.92;100.00;102052.38;5080639;28;19924;-73
2022/12/27 14:23:52;;;;;;;;;;;;;;;3.91;100.00;102046.25;5079109;28;19934;-73
2022/12/27 14:26:24;;;;;;;;;;;;;;;3.89;100.00;102042.75;5059796;28;19924;-74
2022/12/27 14:28:59;;;;;;;;;;;;;;;3.89;100.00;102042.75;5079020;28;19920;-73